Edinburgh Airport, United Kingdom

11:43 AM BST on July 23, 2016 (GMT +0100)
Edinburgh Airport | | Change Station

Elev 135 ft 55.95 °N, 3.35 °W | Updated 23 minutes ago

Mostly Cloudy
Mostly Cloudy
64 °F
Feels Like 64 °F
N
7
Wind Variable Wind from SW

Today
High -- | Low -- °F
--% Chance of Precip.
Yesterday
High -- | Low -- °F
Precip. -- in
Pressure 30.09 in
Visibility 6.2 miles
Clouds Few 2700 ft
Mostly Cloudy 4500 ft
Dew Point 54 °F
Humidity 68%
Rainfall 0.00 in
Snow Depth Not available.
5:02 AM 9:36 PM
Waning Gibbous, 86% visible
METAR EGPH 231020Z AUTO 23006KT 200V260 9999 FEW027 BKN045 18/12 Q1019
Pressure 30.09 in
Visibility 6.2 miles
Clouds Few 2700 ft
Mostly Cloudy 4500 ft
Dew Point 54 °F
Humidity 68%
Rainfall 0.00 in
Snow Depth Not available.
5:02 AM 9:36 PM
Waning Gibbous, 86% visible
METAR EGPH 231020Z AUTO 23006KT 200V260 9999 FEW027 BKN045 18/12 Q1019

10-Day Weather Forecast

×

Almanac

Astronomy

Jul. 23, 2016 Rise Set
Actual Time
Civil Twilight
Nautical Twilight
Astronomical Twilight
Moon
Length of Visible Light
Length of Day
Tomorrow will be .
, % of the Moon is Illuminated

Today's Extremes

Country Highs Country Lows

Community

WunderPhotos

Upload Photos

1,926,793 photos uploaded!

WunderBlog® & News

Nearby

Air Quality

  Air Quality AQ Index Pollutant
Not available.

Snow Depth

Station Depth Elevation

Earthquake Activity

City Distance Mag. Time & Date
Minimum magnitude displayed is 2.5.

Coastal Water Temperatures

Place Temperature

Stations

Nearby Weather Stations

Station Location Temp. Windchill Dew Point Humidity Wind Precip. Elev Updated Type